FYWH/WDH METAR and TAF weather

Enter ICAO airport designator
Station Type Date Time Source
FYWH METAR 2022/06/30 18:00 UTC NOAA

FYWH 301800Z 05003KT 9999 FEW050 BKN090 13/03 Q1026 NOSIG


Station Type Date Time Source
FYWH Decoded METAR 2022/06/30 18:00 UTC NOAA

J. G. Strijdom, Namibia (FYWH) 22-29S 017-28E 1700M
Jun 30, 2022 - 02:00 PM EDT / 2022.06.30 1800 UTC
Wind: from the NE (050 degrees) at 3 MPH (3 KT):0
Visibility: greater than 7 mile(s):0
Sky conditions: mostly cloudy
Temperature: 55 F (13 C)
Dew Point: 37 F (3 C)
Relative Humidity: 50%
Pressure (altimeter): 30.30 in. Hg (1026 hPa)
ob: FYWH 301800Z 05003KT 9999 FEW050 BKN090 13/03 Q1026 NOSIG
cycle: 18

Station Type Date Time Source
FYWH TAF 2022/06/30 18:07 UTC NOAA

TAF FYWH 301600Z 3018/0118 04010KT 9999 SCT045
BECMG 3020/3022 25006KT NSC

Example: see airport list